Time;durP1;ratioP1;P1;durP2;ratioP2;P2;SDS_P1;SDS_P2;PMS_P1;PMS_P2;Temp;Humidity;BMP_temperature;BMP_pressure;BME280_temperature;BME280_humidity;BME280_pressure;Samples;Min_cycle;Max_cycle;Signal;HPM_P1;HPM_P2
2023/06/21 00:01:38;;;;;;;3.33;2.40;;;;;;;;;;5079541;27;88908;-54
2023/06/21 00:04:07;;;;;;;3.90;3.00;;;;;;;;;;5080520;27;87966;-55
2023/06/21 00:06:36;;;;;;;3.93;2.63;;;;;;;;;;5089247;27;89550;-55
2023/06/21 00:09:04;;;;;;;3.30;2.70;;;;;;;;;;5093894;27;89310;-55
2023/06/21 00:11:32;;;;;;;5.23;2.83;;;;;;;;;;5098443;27;88015;-54
2023/06/21 00:14:02;;;;;;;6.07;2.93;;;;;;;;;;5080467;27;87714;-54
2023/06/21 00:16:31;;;;;;;2.93;2.40;;;;;;;;;;5096999;27;89312;-55
2023/06/21 00:18:59;;;;;;;1.87;1.70;;;;;;;;;;5096318;27;88950;-54
2023/06/21 00:21:28;;;;;;;3.73;2.30;;;;;;;;;;5099937;27;88920;-54
2023/06/21 00:23:56;;;;;;;4.23;2.57;;;;;;;;;;5094765;27;87610;-55
2023/06/21 00:26:25;;;;;;;3.30;2.40;;;;;;;;;;5100529;27;88429;-54
2023/06/21 00:28:53;;;;;;;4.10;2.50;;;;;;;;;;5094585;27;90266;-54
2023/06/21 00:31:23;;;;;;;3.40;2.10;;;;;;;;;;5083704;27;88845;-55
2023/06/21 00:33:51;;;;;;;4.43;2.90;;;;;;;;;;5085755;27;87688;-54
2023/06/21 00:36:19;;;;;;;4.70;2.00;;;;;;;;;;5094684;27;88536;-54
2023/06/21 00:38:48;;;;;;;4.33;2.60;;;;;;;;;;5084267;27;89092;-54
2023/06/21 00:41:16;;;;;;;3.57;2.73;;;;;;;;;;5073946;27;89084;-54
2023/06/21 00:43:44;;;;;;;6.30;2.90;;;;;;;;;;5082609;27;87502;-55
2023/06/21 00:46:13;;;;;;;5.97;3.30;;;;;;;;;;5087615;27;88665;-54
2023/06/21 00:48:43;;;;;;;3.67;2.60;;;;;;;;;;5083540;27;89288;-54
2023/06/21 00:51:13;;;;;;;4.37;2.47;;;;;;;;;;5084128;27;88929;-54
2023/06/21 00:53:41;;;;;;;5.00;2.17;;;;;;;;;;5083183;27;87962;-54
2023/06/21 00:56:10;;;;;;;3.73;2.83;;;;;;;;;;5084054;27;89755;-54
2023/06/21 00:58:39;;;;;;;4.13;2.73;;;;;;;;;;5083437;27;89213;-54
2023/06/21 01:01:07;;;;;;;5.07;2.80;;;;;;;;;;5083434;27;87612;-54
2023/06/21 01:03:36;;;;;;;3.63;2.37;;;;;;;;;;5084991;27;87705;-54
2023/06/21 01:06:16;;;;;;;5.90;3.07;;;;;;;;;;5084878;27;89969;-54
2023/06/21 01:08:46;;;;;;;6.87;2.93;;;;;;;;;;5082963;27;88209;-54
2023/06/21 01:11:15;;;;;;;4.10;2.70;;;;;;;;;;5083220;27;88895;-54
2023/06/21 01:13:53;;;;;;;4.00;2.63;;;;;;;;;;5083190;27;87613;-54
2023/06/21 01:16:22;;;;;;;3.80;2.77;;;;;;;;;;5083501;27;89930;-54
2023/06/21 01:18:50;;;;;;;5.83;2.40;;;;;;;;;;5082732;27;89029;-54
2023/06/21 01:21:22;;;;;;;4.70;2.37;;;;;;;;;;5101363;27;90027;-54
2023/06/21 01:24:01;;;;;;;6.47;2.10;;;;;;;;;;5103567;27;87526;-54
2023/06/21 01:26:44;;;;;;;6.30;2.43;;;;;;;;;;5061846;27;89659;-54
2023/06/21 01:29:14;;;;;;;3.27;2.50;;;;;;;;;;5087382;27;89177;-54
2023/06/21 01:31:43;;;;;;;5.47;3.17;;;;;;;;;;5103810;27;88765;-53
2023/06/21 01:34:12;;;;;;;3.30;2.43;;;;;;;;;;5103566;27;87523;-54
2023/06/21 01:36:41;;;;;;;3.80;2.53;;;;;;;;;;5083796;27;89648;-54
2023/06/21 01:39:09;;;;;;;3.30;2.60;;;;;;;;;;5083952;27;89615;-54
2023/06/21 01:41:38;;;;;;;3.93;2.27;;;;;;;;;;5083292;27;89014;-54
2023/06/21 01:44:07;;;;;;;3.43;2.07;;;;;;;;;;5096712;27;87867;-54
2023/06/21 01:46:37;;;;;;;3.67;2.17;;;;;;;;;;5103044;27;89709;-54
2023/06/21 01:49:06;;;;;;;4.53;2.40;;;;;;;;;;5102164;27;87989;-54
2023/06/21 01:51:35;;;;;;;7.23;2.73;;;;;;;;;;5086117;27;88988;-54
2023/06/21 01:54:03;;;;;;;5.10;2.83;;;;;;;;;;5082342;27;87173;-54
2023/06/21 01:56:32;;;;;;;4.30;2.37;;;;;;;;;;5082521;27;88791;-54
2023/06/21 01:59:01;;;;;;;3.83;2.57;;;;;;;;;;5081902;27;89168;-54
2023/06/21 02:01:30;;;;;;;4.47;2.63;;;;;;;;;;5082748;27;88765;-54
2023/06/21 02:04:01;;;;;;;3.10;2.10;;;;;;;;;;5083561;27;87635;-54
2023/06/21 02:06:29;;;;;;;5.93;2.90;;;;;;;;;;5082451;27;88736;-54
2023/06/21 02:08:59;;;;;;;4.60;3.10;;;;;;;;;;5081864;27;90190;-53
2023/06/21 02:11:27;;;;;;;5.80;2.77;;;;;;;;;;5082081;27;89876;-53
2023/06/21 02:13:55;;;;;;;4.33;3.03;;;;;;;;;;5082083;27;87677;-54
2023/06/21 02:16:27;;;;;;;3.23;2.50;;;;;;;;;;5082620;27;88764;-53
2023/06/21 02:18:55;;;;;;;3.97;2.60;;;;;;;;;;5083911;27;88986;-54
2023/06/21 02:21:25;;;;;;;3.07;2.33;;;;;;;;;;5103220;27;87785;-53
2023/06/21 02:23:53;;;;;;;3.97;2.60;;;;;;;;;;5102123;27;87248;-54
2023/06/21 02:26:22;;;;;;;4.10;1.80;;;;;;;;;;5082115;27;89770;-54
2023/06/21 02:28:50;;;;;;;2.23;1.63;;;;;;;;;;5081486;27;89270;-53
2023/06/21 02:31:19;;;;;;;1.90;1.47;;;;;;;;;;5081982;27;87799;-53
2023/06/21 02:33:48;;;;;;;2.97;1.87;;;;;;;;;;5081848;27;87939;-53
2023/06/21 02:36:18;;;;;;;1.53;1.13;;;;;;;;;;5101535;27;89836;-53
2023/06/21 02:38:48;;;;;;;1.53;1.13;;;;;;;;;;5083552;27;87511;-54
2023/06/21 02:41:16;;;;;;;3.87;1.47;;;;;;;;;;5078425;27;88845;-54
2023/06/21 02:43:44;;;;;;;1.70;1.27;;;;;;;;;;5079013;27;87624;-54
2023/06/21 02:46:13;;;;;;;1.00;0.87;;;;;;;;;;5079579;27;89911;-53
2023/06/21 02:48:41;;;;;;;1.10;0.93;;;;;;;;;;5079210;27;87913;-54
2023/06/21 02:51:10;;;;;;;4.13;1.47;;;;;;;;;;5095239;27;87757;-54
2023/06/21 02:53:38;;;;;;;1.03;0.73;;;;;;;;;;5099178;27;88058;-54
2023/06/21 02:56:08;;;;;;;1.80;0.80;;;;;;;;;;5084130;27;89737;-54
2023/06/21 02:58:36;;;;;;;6.23;0.93;;;;;;;;;;5077636;27;90235;-54
2023/06/21 03:01:05;;;;;;;1.00;0.90;;;;;;;;;;5078472;27;88428;-54
2023/06/21 03:03:33;;;;;;;1.80;0.97;;;;;;;;;;5078795;27;87356;-54
2023/06/21 03:06:02;;;;;;;1.27;1.00;;;;;;;;;;5091882;27;89583;-54
2023/06/21 03:08:31;;;;;;;1.93;0.73;;;;;;;;;;5099423;27;88407;-54
2023/06/21 03:11:00;;;;;;;1.37;0.80;;;;;;;;;;5099112;27;88198;-53
2023/06/21 03:13:29;;;;;;;3.63;1.20;;;;;;;;;;5098533;27;87521;-54
2023/06/21 03:15:58;;;;;;;2.07;0.90;;;;;;;;;;5098746;27;89689;-54
2023/06/21 03:18:26;;;;;;;2.40;0.80;;;;;;;;;;5099387;27;88084;-54
2023/06/21 03:20:54;;;;;;;1.10;0.97;;;;;;;;;;5087832;27;88942;-53
2023/06/21 03:23:23;;;;;;;2.63;0.80;;;;;;;;;;5078459;27;88045;-53
2023/06/21 03:25:51;;;;;;;1.17;1.07;;;;;;;;;;5077573;27;89934;-53
2023/06/21 03:28:20;;;;;;;2.40;1.17;;;;;;;;;;5077804;27;89405;-54
2023/06/21 03:30:49;;;;;;;2.87;1.50;;;;;;;;;;5078589;27;89010;-53
2023/06/21 03:33:18;;;;;;;1.73;1.10;;;;;;;;;;5078503;27;87548;-54
2023/06/21 03:35:46;;;;;;;1.50;0.80;;;;;;;;;;5078215;27;89907;-53
2023/06/21 03:38:15;;;;;;;2.67;0.87;;;;;;;;;;5078090;27;89310;-54
2023/06/21 03:40:43;;;;;;;0.60;0.60;;;;;;;;;;5077517;27;88982;-54
2023/06/21 03:43:13;;;;;;;3.03;0.90;;;;;;;;;;5078678;27;87601;-54
2023/06/21 03:45:42;;;;;;;1.10;0.87;;;;;;;;;;5078094;27;89913;-54
2023/06/21 03:48:11;;;;;;;1.70;0.87;;;;;;;;;;5098231;27;92145;-54
2023/06/21 03:50:40;;;;;;;0.70;0.50;;;;;;;;;;5094629;27;88994;-55
2023/06/21 03:53:08;;;;;;;0.97;0.50;;;;;;;;;;5078220;27;87656;-54
2023/06/21 03:55:38;;;;;;;0.70;0.70;;;;;;;;;;5077444;27;89906;-53
2023/06/21 03:58:06;;;;;;;2.17;0.80;;;;;;;;;;5077698;27;89282;-54
2023/06/21 04:00:34;;;;;;;1.83;0.87;;;;;;;;;;5077755;27;88907;-54
2023/06/21 04:03:03;;;;;;;1.37;0.60;;;;;;;;;;5077080;27;87660;-54
2023/06/21 04:05:33;;;;;;;1.27;0.90;;;;;;;;;;5078810;27;88597;-53
2023/06/21 04:08:01;;;;;;;0.53;0.50;;;;;;;;;;5074791;27;87834;-54
2023/06/21 04:10:30;;;;;;;2.43;0.70;;;;;;;;;;5082547;27;87756;-53
2023/06/21 04:12:58;;;;;;;2.37;0.80;;;;;;;;;;5104803;27;87984;-53
2023/06/21 04:15:29;;;;;;;1.93;0.73;;;;;;;;;;5105107;27;88795;-54
2023/06/21 04:17:58;;;;;;;0.83;0.60;;;;;;;;;;5084601;27;89315;-53
2023/06/21 04:20:27;;;;;;;1.27;0.83;;;;;;;;;;5084380;27;88825;-54
2023/06/21 04:22:57;;;;;;;0.60;0.60;;;;;;;;;;5103331;27;87373;-52
2023/06/21 04:25:25;;;;;;;0.83;0.60;;;;;;;;;;5102972;27;87567;-54
2023/06/21 04:27:54;;;;;;;1.10;0.80;;;;;;;;;;5104487;27;89137;-53
2023/06/21 04:30:22;;;;;;;2.43;0.80;;;;;;;;;;5104707;27;87802;-53
2023/06/21 04:32:51;;;;;;;0.93;0.87;;;;;;;;;;5105058;27;87603;-53
2023/06/21 04:35:19;;;;;;;1.47;0.70;;;;;;;;;;5104630;27;89744;-54
2023/06/21 04:37:48;;;;;;;3.93;0.87;;;;;;;;;;5087647;27;90083;-53
2023/06/21 04:40:18;;;;;;;0.97;0.73;;;;;;;;;;5083605;27;89997;-53
2023/06/21 04:42:47;;;;;;;2.37;0.70;;;;;;;;;;5084358;27;87392;-53
2023/06/21 04:45:16;;;;;;;1.17;0.80;;;;;;;;;;5083831;27;88461;-53
2023/06/21 04:47:46;;;;;;;2.27;0.93;;;;;;;;;;5083908;27;89044;-53
2023/06/21 04:50:15;;;;;;;0.57;0.57;;;;;;;;;;5083602;27;87728;-53
2023/06/21 04:52:50;;;;;;;1.50;0.60;;;;;;;;;;5097828;27;87494;-53
2023/06/21 04:55:20;;;;;;;0.83;0.63;;;;;;;;;;5103171;27;89715;-53
2023/06/21 04:57:49;;;;;;;0.80;0.67;;;;;;;;;;5103996;27;89263;-54
2023/06/21 05:00:18;;;;;;;0.67;0.60;;;;;;;;;;5104152;27;88839;-53
2023/06/21 05:02:46;;;;;;;1.03;0.90;;;;;;;;;;5103615;27;87988;-53
2023/06/21 05:05:15;;;;;;;1.00;0.70;;;;;;;;;;5103432;27;89718;-53
2023/06/21 05:07:44;;;;;;;2.50;0.70;;;;;;;;;;5091513;27;88469;-54
2023/06/21 05:10:12;;;;;;;1.80;0.60;;;;;;;;;;5099262;27;89481;-53
2023/06/21 05:12:42;;;;;;;1.80;0.77;;;;;;;;;;5103624;27;87717;-53
2023/06/21 05:15:11;;;;;;;0.80;0.50;;;;;;;;;;5103739;27;89554;-53
2023/06/21 05:17:39;;;;;;;1.37;0.47;;;;;;;;;;5103600;27;88242;-53
2023/06/21 05:20:09;;;;;;;1.37;0.70;;;;;;;;;;5104447;27;88818;-54
2023/06/21 05:22:39;;;;;;;2.07;0.70;;;;;;;;;;5095548;27;87504;-53
2023/06/21 05:25:07;;;;;;;1.53;0.77;;;;;;;;;;5083094;27;89596;-53
2023/06/21 05:27:35;;;;;;;1.30;0.70;;;;;;;;;;5082817;27;90381;-53
2023/06/21 05:30:06;;;;;;;3.33;0.70;;;;;;;;;;5082299;27;90196;-53
2023/06/21 05:32:35;;;;;;;1.30;0.60;;;;;;;;;;5083247;27;87566;-53
2023/06/21 05:35:03;;;;;;;0.70;0.60;;;;;;;;;;5083098;27;89687;-54
2023/06/21 05:37:32;;;;;;;1.90;0.90;;;;;;;;;;5083964;27;89079;-53
2023/06/21 05:40:02;;;;;;;1.00;0.70;;;;;;;;;;5082929;27;88494;-54
2023/06/21 05:42:31;;;;;;;1.23;0.77;;;;;;;;;;5083340;27;87537;-54
2023/06/21 05:44:59;;;;;;;1.30;1.00;;;;;;;;;;5082715;27;89729;-54
2023/06/21 05:47:29;;;;;;;4.70;0.90;;;;;;;;;;5083150;27;88149;-54
2023/06/21 05:49:57;;;;;;;2.00;1.20;;;;;;;;;;5082704;27;88865;-54
2023/06/21 05:52:26;;;;;;;0.83;0.83;;;;;;;;;;5087507;27;88019;-54
2023/06/21 05:54:54;;;;;;;2.77;1.20;;;;;;;;;;5102782;27;89870;-53
2023/06/21 05:57:24;;;;;;;1.83;1.40;;;;;;;;;;5103259;27;89145;-54
2023/06/21 05:59:52;;;;;;;1.43;1.20;;;;;;;;;;5076668;27;89000;-54
2023/06/21 06:02:21;;;;;;;1.80;1.10;;;;;;;;;;5082696;27;87611;-54
2023/06/21 06:04:50;;;;;;;1.93;1.50;;;;;;;;;;5081994;27;89660;-53
2023/06/21 06:07:19;;;;;;;3.10;1.00;;;;;;;;;;5084253;27;89524;-54
2023/06/21 06:09:47;;;;;;;3.93;1.07;;;;;;;;;;5102964;27;88986;-53
2023/06/21 06:12:17;;;;;;;2.03;1.30;;;;;;;;;;5103324;27;87630;-53
2023/06/21 06:14:46;;;;;;;1.70;1.07;;;;;;;;;;5102982;27;89838;-54
2023/06/21 06:17:16;;;;;;;0.93;0.80;;;;;;;;;;5102011;27;90278;-54
2023/06/21 06:19:45;;;;;;;0.87;0.87;;;;;;;;;;5101956;27;89771;-54
2023/06/21 06:22:14;;;;;;;0.77;0.77;;;;;;;;;;5102475;27;87395;-54
2023/06/21 06:24:45;;;;;;;0.90;0.67;;;;;;;;;;5101180;27;89920;-54
2023/06/21 06:27:13;;;;;;;1.00;0.80;;;;;;;;;;5100895;27;89008;-55
2023/06/21 06:29:42;;;;;;;2.13;1.10;;;;;;;;;;5072274;27;88842;-54
2023/06/21 06:32:10;;;;;;;1.53;0.80;;;;;;;;;;5078011;27;87660;-55
2023/06/21 06:34:38;;;;;;;1.53;0.73;;;;;;;;;;5089948;27;89296;-54
2023/06/21 06:37:07;;;;;;;1.70;1.00;;;;;;;;;;5082169;27;88372;-55
2023/06/21 06:39:46;;;;;;;2.23;1.00;;;;;;;;;;5082746;27;88706;-53
2023/06/21 06:42:14;;;;;;;1.07;0.97;;;;;;;;;;5082150;27;87769;-54
2023/06/21 06:44:43;;;;;;;1.23;1.10;;;;;;;;;;5081917;27;89645;-54
2023/06/21 06:47:12;;;;;;;3.67;1.20;;;;;;;;;;5081424;27;88006;-54
2023/06/21 06:49:41;;;;;;;2.83;0.90;;;;;;;;;;5082112;27;88894;-54
2023/06/21 06:52:11;;;;;;;1.57;0.57;;;;;;;;;;5081778;27;87375;-54
2023/06/21 06:54:40;;;;;;;0.63;0.60;;;;;;;;;;5086621;27;89808;-54
2023/06/21 06:57:10;;;;;;;0.60;0.60;;;;;;;;;;5081667;27;87737;-56
2023/06/21 06:59:53;;;;;;;0.63;0.50;;;;;;;;;;5081903;27;88477;-55
2023/06/21 07:02:21;;;;;;;0.73;0.57;;;;;;;;;;5081082;27;87473;-54
2023/06/21 07:04:50;;;;;;;1.00;0.73;;;;;;;;;;5081339;27;89643;-54
2023/06/21 07:07:18;;;;;;;2.80;0.60;;;;;;;;;;5081372;27;90048;-55
2023/06/21 07:09:47;;;;;;;0.40;0.40;;;;;;;;;;5081819;27;88772;-55
2023/06/21 07:12:17;;;;;;;0.30;0.30;;;;;;;;;;5079674;27;89564;-54
2023/06/21 07:14:45;;;;;;;1.47;0.60;;;;;;;;;;5081462;27;88502;-54
2023/06/21 07:17:13;;;;;;;0.73;0.53;;;;;;;;;;5081254;27;87482;-55
2023/06/21 07:19:45;;;;;;;0.73;0.50;;;;;;;;;;5079240;27;88862;-55
2023/06/21 07:22:14;;;;;;;0.70;0.50;;;;;;;;;;5076879;27;87639;-55
2023/06/21 07:24:42;;;;;;;3.40;0.60;;;;;;;;;;5072133;27;89698;-54
2023/06/21 07:27:11;;;;;;;0.67;0.50;;;;;;;;;;5060564;27;88954;-54
2023/06/21 07:29:40;;;;;;;1.30;0.63;;;;;;;;;;5074520;27;87739;-54
2023/06/21 07:32:09;;;;;;;0.50;0.50;;;;;;;;;;5080420;27;87918;-54
2023/06/21 07:34:37;;;;;;;2.40;0.97;;;;;;;;;;5080201;27;89661;-54
2023/06/21 07:37:06;;;;;;;1.00;0.83;;;;;;;;;;5080481;27;89259;-55
2023/06/21 07:39:34;;;;;;;2.23;0.97;;;;;;;;;;5080896;27;89346;-57
2023/06/21 07:42:20;;;;;;;1.30;0.70;;;;;;;;;;5080963;27;87480;-55
2023/06/21 07:44:52;;;;;;;1.60;1.00;;;;;;;;;;5080979;27;88684;-55
2023/06/21 07:47:20;;;;;;;3.00;1.13;;;;;;;;;;5083515;27;88801;-55
2023/06/21 07:49:49;;;;;;;1.13;0.77;;;;;;;;;;5084465;27;88825;-55
2023/06/21 07:52:17;;;;;;;1.30;0.80;;;;;;;;;;5080624;27;87527;-55
2023/06/21 07:54:48;;;;;;;2.83;0.83;;;;;;;;;;5102522;27;89851;-54
2023/06/21 07:57:16;;;;;;;1.03;0.70;;;;;;;;;;5102128;27;90087;-54
2023/06/21 07:59:45;;;;;;;0.80;0.60;;;;;;;;;;5105239;27;89953;-54
2023/06/21 08:02:17;;;;;;;2.13;0.77;;;;;;;;;;5087076;27;87653;-55
2023/06/21 08:04:46;;;;;;;1.10;0.50;;;;;;;;;;5084066;27;89678;-54
2023/06/21 08:07:14;;;;;;;0.40;0.40;;;;;;;;;;5084152;27;88059;-54
2023/06/21 08:09:43;;;;;;;1.30;0.80;;;;;;;;;;5088290;27;87844;-55
2023/06/21 08:12:12;;;;;;;2.20;0.90;;;;;;;;;;5097798;27;87630;-54
2023/06/21 08:14:41;;;;;;;0.80;0.50;;;;;;;;;;5098239;27;89961;-55
2023/06/21 08:17:09;;;;;;;0.93;0.60;;;;;;;;;;5104950;27;89083;-55
2023/06/21 08:19:39;;;;;;;0.40;0.40;;;;;;;;;;5090056;27;87763;-55
2023/06/21 08:22:08;;;;;;;1.17;0.60;;;;;;;;;;5095745;27;87921;-55
2023/06/21 08:24:36;;;;;;;2.23;0.47;;;;;;;;;;5081637;27;88952;-55
2023/06/21 08:27:05;;;;;;;0.63;0.57;;;;;;;;;;5092891;27;88747;-55
2023/06/21 08:29:33;;;;;;;1.03;0.50;;;;;;;;;;5103391;27;88919;-55
2023/06/21 08:32:03;;;;;;;0.60;0.40;;;;;;;;;;5104565;27;87416;-55
2023/06/21 08:34:32;;;;;;;0.30;0.30;;;;;;;;;;5104609;27;89637;-55
2023/06/21 08:37:02;;;;;;;1.83;0.60;;;;;;;;;;5104655;27;88156;-54
2023/06/21 08:39:30;;;;;;;6.67;0.57;;;;;;;;;;5104717;27;88868;-55
2023/06/21 08:42:00;;;;;;;0.73;0.40;;;;;;;;;;5105028;27;87478;-54
2023/06/21 08:44:28;;;;;;;2.10;0.50;;;;;;;;;;5104090;27;89750;-55
2023/06/21 08:46:57;;;;;;;0.87;0.50;;;;;;;;;;5103530;27;89993;-55
2023/06/21 08:49:26;;;;;;;0.57;0.40;;;;;;;;;;5103559;27;89920;-54
2023/06/21 08:51:55;;;;;;;0.80;0.60;;;;;;;;;;5104715;27;87626;-55
2023/06/21 08:54:26;;;;;;;0.33;0.33;;;;;;;;;;5103524;27;89616;-55
2023/06/21 08:56:55;;;;;;;0.60;0.47;;;;;;;;;;5103962;27;88989;-54
2023/06/21 08:59:24;;;;;;;0.30;0.30;;;;;;;;;;5103467;27;88928;-54
2023/06/21 09:01:54;;;;;;;1.40;0.70;;;;;;;;;;5104566;27;87637;-54
2023/06/21 09:04:22;;;;;;;1.80;0.70;;;;;;;;;;5104140;27;89814;-54
2023/06/21 09:06:51;;;;;;;2.93;0.80;;;;;;;;;;5103914;27;87348;-55
2023/06/21 09:09:20;;;;;;;0.73;0.50;;;;;;;;;;5103868;27;87667;-55
2023/06/21 09:11:49;;;;;;;0.53;0.53;;;;;;;;;;5104197;27;87902;-55
2023/06/21 09:14:18;;;;;;;0.93;0.53;;;;;;;;;;5104087;27;88676;-55
2023/06/21 09:16:47;;;;;;;1.40;0.80;;;;;;;;;;5103379;27;89288;-55
2023/06/21 09:19:15;;;;;;;1.37;0.77;;;;;;;;;;5103013;27;90312;-55
2023/06/21 09:21:43;;;;;;;1.57;0.90;;;;;;;;;;5103372;27;87558;-54
2023/06/21 09:24:12;;;;;;;1.53;1.10;;;;;;;;;;5103185;27;89623;-54
2023/06/21 09:26:40;;;;;;;0.87;0.70;;;;;;;;;;5103740;27;88348;-54
2023/06/21 09:29:10;;;;;;;0.50;0.50;;;;;;;;;;5102703;27;89244;-55
2023/06/21 09:31:38;;;;;;;1.97;0.90;;;;;;;;;;5103917;27;87518;-55
2023/06/21 09:34:07;;;;;;;6.60;1.20;;;;;;;;;;5103966;27;89904;-55
2023/06/21 09:36:35;;;;;;;2.33;0.90;;;;;;;;;;5102240;27;90160;-55
2023/06/21 09:39:10;;;;;;;1.17;0.93;;;;;;;;;;5103439;27;89859;-55
2023/06/21 09:41:38;;;;;;;1.67;0.93;;;;;;;;;;5103774;27;87389;-55
2023/06/21 09:44:06;;;;;;;1.63;1.03;;;;;;;;;;5102985;27;89679;-55
2023/06/21 09:46:36;;;;;;;4.13;1.03;;;;;;;;;;5102882;27;89314;-54
2023/06/21 09:49:08;;;;;;;2.50;1.10;;;;;;;;;;5103596;27;87892;-54
2023/06/21 09:51:43;;;;;;;3.60;1.33;;;;;;;;;;5103257;27;87712;-54
2023/06/21 09:54:11;;;;;;;1.83;1.03;;;;;;;;;;5103476;27;89530;-55
2023/06/21 09:56:39;;;;;;;1.87;0.80;;;;;;;;;;5102456;27;89170;-55
2023/06/21 09:59:14;;;;;;;1.00;0.90;;;;;;;;;;5103411;27;88228;-54
2023/06/21 10:01:45;;;;;;;1.13;0.87;;;;;;;;;;5102991;27;88255;-54
2023/06/21 10:04:14;;;;;;;2.37;1.50;;;;;;;;;;5103660;27;89713;-54
2023/06/21 10:06:51;;;;;;;1.20;1.10;;;;;;;;;;5103462;27;89187;-55
2023/06/21 10:09:20;;;;;;;1.67;1.20;;;;;;;;;;5101797;27;88011;-55
2023/06/21 10:11:49;;;;;;;2.30;1.10;;;;;;;;;;5103229;27;88406;-54
2023/06/21 10:14:20;;;;;;;1.50;1.13;;;;;;;;;;5102180;27;89624;-55
2023/06/21 10:16:54;;;;;;;1.57;1.30;;;;;;;;;;5103148;27;89363;-55
2023/06/21 10:19:23;;;;;;;1.77;1.47;;;;;;;;;;5103164;27;87848;-55
2023/06/21 10:21:52;;;;;;;4.70;1.60;;;;;;;;;;5102982;27;87613;-54
2023/06/21 10:24:20;;;;;;;1.90;1.30;;;;;;;;;;5102919;27;89819;-55
2023/06/21 10:26:49;;;;;;;2.40;1.00;;;;;;;;;;5102479;27;89157;-55
2023/06/21 10:29:18;;;;;;;2.10;1.13;;;;;;;;;;5103076;27;89828;-54
2023/06/21 10:31:46;;;;;;;2.43;1.20;;;;;;;;;;5102258;27;87553;-57
2023/06/21 10:34:17;;;;;;;1.60;1.10;;;;;;;;;;5102590;27;89927;-55
2023/06/21 10:36:45;;;;;;;1.63;1.27;;;;;;;;;;5102395;27;89214;-54
2023/06/21 10:39:14;;;;;;;3.70;1.27;;;;;;;;;;5102873;27;88898;-55
2023/06/21 10:41:42;;;;;;;2.00;1.20;;;;;;;;;;5102801;27;87617;-54
2023/06/21 10:44:10;;;;;;;1.80;1.10;;;;;;;;;;5102855;27;89647;-55
2023/06/21 10:46:41;;;;;;;1.20;1.07;;;;;;;;;;5102006;27;89348;-54
2023/06/21 10:49:10;;;;;;;2.20;1.30;;;;;;;;;;5102134;27;89064;-55
2023/06/21 10:51:40;;;;;;;3.13;1.40;;;;;;;;;;5102248;27;87731;-55
2023/06/21 10:54:09;;;;;;;1.30;0.93;;;;;;;;;;5102146;27;90465;-55
2023/06/21 10:56:39;;;;;;;1.70;1.10;;;;;;;;;;5102065;27;88665;-55
2023/06/21 10:59:07;;;;;;;1.20;1.00;;;;;;;;;;5102016;27;88768;-55
2023/06/21 11:01:35;;;;;;;1.10;0.90;;;;;;;;;;5102152;27;87734;-55
2023/06/21 11:04:04;;;;;;;2.50;1.10;;;;;;;;;;5098872;27;90054;-55
2023/06/21 11:06:37;;;;;;;0.90;0.70;;;;;;;;;;5077112;27;89061;-55
2023/06/21 11:09:11;;;;;;;0.90;0.80;;;;;;;;;;5079201;27;88075;-55
2023/06/21 11:11:43;;;;;;;2.77;1.00;;;;;;;;;;5078512;27;88264;-55
2023/06/21 11:14:11;;;;;;;2.03;0.97;;;;;;;;;;5077858;27;89608;-55
2023/06/21 11:16:40;;;;;;;1.93;0.90;;;;;;;;;;5077649;27;89357;-55
2023/06/21 11:19:10;;;;;;;2.37;1.13;;;;;;;;;;5078428;27;89877;-55
2023/06/21 11:21:44;;;;;;;1.87;0.73;;;;;;;;;;5078852;27;88065;-54
2023/06/21 11:24:16;;;;;;;2.03;1.07;;;;;;;;;;5078092;27;90400;-55
2023/06/21 11:27:01;;;;;;;2.17;1.00;;;;;;;;;;5078654;27;89059;-55
2023/06/21 11:29:40;;;;;;;5.13;1.10;;;;;;;;;;5078318;27;88925;-55
2023/06/21 11:32:09;;;;;;;1.33;0.90;;;;;;;;;;5077550;27;87604;-55
2023/06/21 11:34:38;;;;;;;1.80;1.10;;;;;;;;;;5076849;27;89847;-55
2023/06/21 11:37:24;;;;;;;2.70;0.90;;;;;;;;;;5081538;27;88427;-56
2023/06/21 11:40:00;;;;;;;2.23;1.10;;;;;;;;;;5080667;27;88750;-55
2023/06/21 11:42:28;;;;;;;3.17;1.10;;;;;;;;;;5081118;27;87858;-54
2023/06/21 11:44:57;;;;;;;1.47;0.90;;;;;;;;;;5080390;27;89822;-54
2023/06/21 11:47:25;;;;;;;3.43;1.30;;;;;;;;;;5081008;27;89063;-55
2023/06/21 11:50:01;;;;;;;0.90;0.73;;;;;;;;;;5080683;27;88927;-55
2023/06/21 11:52:33;;;;;;;4.60;0.93;;;;;;;;;;5081132;27;87560;-55
2023/06/21 11:55:17;;;;;;;0.93;0.77;;;;;;;;;;5080563;27;89522;-54
2023/06/21 11:57:46;;;;;;;0.93;0.80;;;;;;;;;;5081410;27;89114;-55
2023/06/21 12:00:15;;;;;;;2.10;0.87;;;;;;;;;;5081080;27;88677;-55
2023/06/21 12:02:43;;;;;;;1.87;0.97;;;;;;;;;;5081281;27;87645;-55
2023/06/21 12:05:12;;;;;;;1.33;0.97;;;;;;;;;;5080363;27;88539;-54
2023/06/21 12:07:41;;;;;;;2.10;0.90;;;;;;;;;;5080474;27;88994;-55
2023/06/21 12:10:10;;;;;;;7.87;1.00;;;;;;;;;;5080412;27;89868;-54
2023/06/21 12:12:40;;;;;;;1.20;0.53;;;;;;;;;;5081307;27;87395;-55
2023/06/21 12:15:08;;;;;;;2.87;0.83;;;;;;;;;;5080732;27;89652;-55
2023/06/21 12:17:37;;;;;;;2.30;0.70;;;;;;;;;;5080696;27;88334;-55
2023/06/21 12:20:06;;;;;;;1.43;0.80;;;;;;;;;;5080916;27;88857;-54
2023/06/21 12:22:35;;;;;;;1.87;1.17;;;;;;;;;;5080493;27;87614;-55
2023/06/21 12:25:03;;;;;;;1.07;0.90;;;;;;;;;;5079695;27;89783;-56
2023/06/21 12:27:31;;;;;;;4.47;0.93;;;;;;;;;;5080049;27;88284;-55
2023/06/21 12:30:01;;;;;;;1.13;0.90;;;;;;;;;;5080014;27;89053;-55
2023/06/21 12:32:30;;;;;;;0.63;0.50;;;;;;;;;;5081999;27;87892;-54
2023/06/21 12:35:02;;;;;;;2.40;1.00;;;;;;;;;;5083268;27;89602;-55
2023/06/21 12:37:32;;;;;;;0.80;0.70;;;;;;;;;;5083812;27;89466;-55
2023/06/21 12:40:01;;;;;;;0.80;0.77;;;;;;;;;;5083851;27;88772;-55
2023/06/21 12:42:30;;;;;;;0.80;0.80;;;;;;;;;;5083826;27;87655;-55
2023/06/21 12:44:58;;;;;;;0.90;0.80;;;;;;;;;;5083408;27;88761;-56
2023/06/21 12:47:28;;;;;;;1.40;0.90;;;;;;;;;;5083806;27;88356;-55
2023/06/21 12:50:00;;;;;;;0.40;0.40;;;;;;;;;;5083967;27;88857;-55
2023/06/21 12:52:28;;;;;;;1.90;0.87;;;;;;;;;;5083706;27;87679;-56
2023/06/21 12:54:57;;;;;;;0.50;0.50;;;;;;;;;;5082875;27;88531;-55
2023/06/21 12:57:26;;;;;;;0.90;0.90;;;;;;;;;;5083219;27;89958;-56
2023/06/21 12:59:55;;;;;;;1.33;0.93;;;;;;;;;;5084148;27;88881;-55
2023/06/21 13:02:26;;;;;;;0.87;0.80;;;;;;;;;;5083907;27;87264;-55
2023/06/21 13:04:57;;;;;;;0.60;0.53;;;;;;;;;;5083712;27;88565;-56
2023/06/21 13:07:26;;;;;;;0.80;0.63;;;;;;;;;;5083625;27;89375;-55
2023/06/21 13:09:54;;;;;;;1.50;1.00;;;;;;;;;;5083063;27;87978;-55
2023/06/21 13:12:23;;;;;;;2.80;0.90;;;;;;;;;;5083902;27;87716;-55
2023/06/21 13:14:51;;;;;;;2.27;0.60;;;;;;;;;;5083502;27;89865;-55
2023/06/21 13:17:20;;;;;;;1.23;0.90;;;;;;;;;;5082938;27;88242;-55
2023/06/21 13:19:49;;;;;;;1.73;0.67;;;;;;;;;;5083412;27;87824;-55
2023/06/21 13:22:20;;;;;;;1.00;0.83;;;;;;;;;;5082428;27;88046;-55
2023/06/21 13:24:49;;;;;;;0.80;0.60;;;;;;;;;;5083253;27;89660;-55
2023/06/21 13:27:17;;;;;;;1.27;0.80;;;;;;;;;;5083575;27;87454;-55
2023/06/21 13:29:46;;;;;;;0.80;0.50;;;;;;;;;;5083247;27;88848;-55
2023/06/21 13:32:14;;;;;;;1.17;0.47;;;;;;;;;;5083694;27;87489;-55
2023/06/21 13:34:43;;;;;;;1.27;0.70;;;;;;;;;;5083037;27;87437;-55
2023/06/21 13:37:11;;;;;;;1.60;0.70;;;;;;;;;;5083271;27;88680;-55
2023/06/21 13:39:41;;;;;;;3.30;0.87;;;;;;;;;;5082850;27;88710;-55
2023/06/21 13:42:09;;;;;;;0.97;0.60;;;;;;;;;;5083454;27;87674;-55
2023/06/21 13:44:38;;;;;;;0.60;0.60;;;;;;;;;;5081955;27;89682;-56
2023/06/21 13:47:06;;;;;;;0.80;0.70;;;;;;;;;;5082872;27;90106;-55
2023/06/21 13:49:35;;;;;;;1.87;0.70;;;;;;;;;;5082903;27;89315;-54
2023/06/21 13:52:04;;;;;;;1.03;0.67;;;;;;;;;;5083187;27;87719;-55
2023/06/21 13:54:32;;;;;;;0.87;0.60;;;;;;;;;;5081754;27;89817;-55
2023/06/21 13:57:06;;;;;;;0.70;0.40;;;;;;;;;;5082846;27;88327;-55
2023/06/21 13:59:35;;;;;;;1.30;0.70;;;;;;;;;;5082780;27;88805;-55
2023/06/21 14:02:04;;;;;;;0.90;0.57;;;;;;;;;;5082753;27;87638;-56
2023/06/21 14:04:32;;;;;;;0.70;0.50;;;;;;;;;;5082187;27;89677;-56
2023/06/21 14:07:01;;;;;;;1.10;0.60;;;;;;;;;;5082924;27;87416;-55
2023/06/21 14:09:30;;;;;;;0.87;0.47;;;;;;;;;;5082979;27;87589;-55
2023/06/21 14:11:58;;;;;;;1.87;0.80;;;;;;;;;;5082426;27;87843;-54
2023/06/21 14:14:28;;;;;;;0.67;0.67;;;;;;;;;;5082909;27;89483;-56
2023/06/21 14:16:56;;;;;;;1.20;0.60;;;;;;;;;;5082100;27;87806;-55
2023/06/21 14:19:25;;;;;;;1.27;0.47;;;;;;;;;;5081904;27;88814;-55
2023/06/21 14:21:53;;;;;;;0.77;0.67;;;;;;;;;;5082051;27;87471;-55
2023/06/21 14:24:21;;;;;;;0.43;0.43;;;;;;;;;;5081755;27;89853;-55
2023/06/21 14:26:50;;;;;;;0.80;0.70;;;;;;;;;;5081686;27;89305;-55
2023/06/21 14:29:18;;;;;;;1.30;0.80;;;;;;;;;;5082046;27;88984;-55
2023/06/21 14:31:48;;;;;;;0.40;0.40;;;;;;;;;;5082460;27;87774;-55
2023/06/21 14:34:16;;;;;;;0.80;0.60;;;;;;;;;;5081146;27;89706;-55
2023/06/21 14:36:45;;;;;;;0.67;0.47;;;;;;;;;;5081529;27;88937;-55
2023/06/21 14:39:13;;;;;;;0.37;0.37;;;;;;;;;;5082256;27;89890;-55
2023/06/21 14:41:42;;;;;;;0.70;0.50;;;;;;;;;;5082471;27;87763;-56
2023/06/21 14:44:10;;;;;;;0.60;0.50;;;;;;;;;;5078013;27;89723;-55
2023/06/21 14:46:39;;;;;;;0.60;0.60;;;;;;;;;;5077972;27;88408;-55
2023/06/21 14:49:11;;;;;;;3.67;0.70;;;;;;;;;;5078954;27;88855;-55
2023/06/21 14:51:39;;;;;;;1.00;0.70;;;;;;;;;;5079286;27;87611;-55
2023/06/21 14:54:08;;;;;;;0.60;0.60;;;;;;;;;;5078339;27;89838;-56
2023/06/21 14:56:36;;;;;;;0.30;0.30;;;;;;;;;;5077792;27;88335;-56